»·PEaware :: PRD69 KLAS-KGCN

PRD69 :: KLAS-KGCN

FLIGHT INFORMATION

Flight Status: Arrived
Operator: Unknown
More flights by this operator :: More flights under this callsign
Pilot: Ryan B. (8502)
Aircraft: BEECH AIRCRAFT SUPER KING AIR COMMUTER
(BE20)
More flights by this aircraft type
Origin: KLAS McCarran Intl
United States
Destination: KGCN Grand Canyon Natl Park
United States
More flights between these airports :: More routes between these airports
Route: LAS V237 KIDDS V562 PGS V208 GCN
File this flight plan on PilotEdge
Remarks:
Altitude:
(Current/Filed)
11,000ft
Speed:
(Current/Filed)
200kts
Departed: 02-Oct-18 06:57 PM
Arrived: 02-Oct-18 07:41 PM
Distance/Time
Traveled:
146nm/0:43
Distance/Time
To Go:
Arrived

Flight Plot

Page will automatically refresh every two minutes.

Flight plan parsing failed; only flown route is shown


Map Options




Map Legend


Flown Route
Filed Route
Departure Airport
Arrival Airport
Navaid (VOR, NDB)
Fix

Horizontal Profiles

Position Reports

Time Latitude Longitude Heading Altitude Ground
Speed
02-Oct-18 18:47 36.081454 -115.171213 89 2168ft 0kts
02-Oct-18 18:48 36.081454 -115.171213 89 2168ft 0kts
02-Oct-18 18:49 36.081454 -115.171213 89 2168ft 0kts
02-Oct-18 18:50 36.081454 -115.171213 89 2168ft 0kts
02-Oct-18 18:51 36.081454 -115.171213 89 2168ft 0kts
02-Oct-18 18:52 36.081454 -115.171213 89 2168ft 0kts
02-Oct-18 18:53 36.081454 -115.171213 89 2168ft 0kts
02-Oct-18 18:54 36.081454 -115.171213 89 2168ft 0kts
02-Oct-18 18:55 36.081454 -115.171213 89 2168ft 0kts
02-Oct-18 18:56 36.081454 -115.171213 89 2168ft 0kts
02-Oct-18 18:57 36.081454 -115.171213 89 2168ft 0kts
02-Oct-18 18:58 36.081454 -115.171210 89 2168ft 0kts
02-Oct-18 18:59 36.084362 -115.167564 26 2154ft 43kts
02-Oct-18 19:00 36.092348 -115.162969 25 2118ft 35kts
02-Oct-18 19:01 36.099799 -115.157736 78 2086ft 26kts
02-Oct-18 19:02 36.086343 -115.164109 201 2216ft 136kts
02-Oct-18 19:03 36.045885 -115.175343 186 4057ft 160kts
02-Oct-18 19:04 36.007437 -115.162953 101 6068ft 176kts
02-Oct-18 19:05 36.020461 -115.103106 63 7925ft 193kts
02-Oct-18 19:06 36.047438 -115.044499 63 9635ft 202kts
02-Oct-18 19:07 36.076759 -114.980076 62 10838ft 235kts
02-Oct-18 19:08 36.111547 -114.903337 64 10992ft 274kts
02-Oct-18 19:09 36.125481 -114.809504 83 10990ft 281kts
02-Oct-18 19:10 36.137524 -114.713180 83 11002ft 285kts
02-Oct-18 19:11 36.149678 -114.615983 83 11003ft 286kts
02-Oct-18 19:12 36.161021 -114.524702 83 11003ft 286kts
02-Oct-18 19:13 36.134778 -114.438219 126 11006ft 275kts
02-Oct-18 19:14 36.091496 -114.360170 127 11003ft 276kts
02-Oct-18 19:15 36.056269 -114.277951 93 11050ft 281kts
02-Oct-18 19:16 36.054383 -114.180599 95 11012ft 283kts
02-Oct-18 19:17 36.051317 -114.099526 95 11040ft 283kts
02-Oct-18 19:18 36.048461 -114.002594 94 11072ft 283kts
02-Oct-18 19:19 36.044862 -113.905248 95 11089ft 283kts
02-Oct-18 19:20 36.040657 -113.808059 95 11103ft 284kts
02-Oct-18 19:21 36.036316 -113.710687 95 11108ft 284kts
02-Oct-18 19:22 36.040283 -113.613911 101 11196ft 277kts
02-Oct-18 19:23 36.036117 -113.533082 95 10875ft 290kts
02-Oct-18 19:24 36.030437 -113.417554 95 10785ft 286kts
02-Oct-18 19:25 36.026090 -113.336455 96 10788ft 285kts
02-Oct-18 19:26 36.019555 -113.220331 99 10147ft 298kts
02-Oct-18 19:27 36.003253 -113.138590 106 9498ft 301kts
02-Oct-18 19:28 35.978594 -113.022077 106 8959ft 292kts
02-Oct-18 19:29 35.963012 -112.948068 106 8958ft 284kts
02-Oct-18 19:30 35.943619 -112.853967 106 8961ft 282kts
02-Oct-18 19:31 35.924961 -112.760367 105 8944ft 270kts
02-Oct-18 19:32 35.899710 -112.684206 116 8952ft 219kts
02-Oct-18 19:33 35.877299 -112.619314 118 8935ft 203kts
02-Oct-18 19:34 35.850936 -112.559354 125 8980ft 196kts
02-Oct-18 19:35 35.824914 -112.498493 122 8965ft 202kts
02-Oct-18 19:36 35.797730 -112.437882 123 8971ft 203kts
02-Oct-18 19:37 35.772387 -112.376183 94 8827ft 216kts
02-Oct-18 19:38 35.796240 -112.311760 42 8924ft 210kts
02-Oct-18 19:39 35.840250 -112.263662 43 8733ft 212kts
02-Oct-18 19:40 35.884237 -112.218974 37 8219ft 182kts
02-Oct-18 19:41 35.917101 -112.184232 38 7209ft 149kts
02-Oct-18 19:42 35.947164 -112.152440 38 6567ft 104kts
02-Oct-18 19:43 35.952096 -112.145466 41 6596ft 9kts
02-Oct-18 19:44 35.956564 -112.139669 40 6617ft 0kts

Navigation Log

Ident Type
Flight plan parsing failed, navigation log unavailable